createdAt,value
2017-09-09T00:00:57.509Z,0
2017-09-09T00:01:57.867Z,0
2017-09-09T00:02:57.632Z,0
2017-09-09T00:03:58.264Z,0
2017-09-09T00:04:57.972Z,0
2017-09-09T00:05:58.299Z,0
2017-09-09T00:06:58.065Z,0
2017-09-09T00:07:58.466Z,0
2017-09-09T00:08:58.770Z,0
2017-09-09T00:09:58.866Z,0
2017-09-09T00:10:58.341Z,0
2017-09-09T00:11:59.651Z,0
2017-09-09T00:12:59.414Z,0
2017-09-09T00:13:59.440Z,0
2017-09-09T00:14:59.477Z,0
2017-09-09T00:15:59.180Z,0
2017-09-09T00:16:59.195Z,0
2017-09-09T00:17:59.639Z,0
2017-09-09T00:18:59.965Z,0
2017-09-09T00:19:59.661Z,0
2017-09-09T00:20:59.745Z,0
2017-09-09T00:22:00.381Z,0
2017-09-09T00:23:00.434Z,0
2017-09-09T00:24:00.205Z,0
2017-09-09T00:25:00.887Z,0
2017-09-09T00:26:00.315Z,0
2017-09-09T00:27:00.668Z,0
2017-09-09T00:28:00.684Z,0
2017-09-09T00:29:00.706Z,0
2017-09-09T00:30:01.717Z,0
2017-09-09T00:31:01.389Z,0
2017-09-09T00:32:01.246Z,0
2017-09-09T00:33:02.205Z,0
2017-09-09T00:34:02.233Z,0
2017-09-09T00:35:01.938Z,0
2017-09-09T00:36:02.313Z,0
2017-09-09T00:37:02.291Z,0
2017-09-09T00:38:01.683Z,0
2017-09-09T00:39:02.972Z,0
2017-09-09T00:40:56.261Z,0
2017-09-09T00:41:24.778Z,0
2017-09-09T00:42:24.834Z,0
2017-09-09T00:43:25.479Z,0
2017-09-09T00:44:25.514Z,0
2017-09-09T00:45:25.555Z,0
2017-09-09T00:46:25.659Z,0
2017-09-09T00:47:26.303Z,0
2017-09-09T00:48:26.057Z,0
2017-09-09T00:49:26.345Z,0
2017-09-09T00:50:25.739Z,0
2017-09-09T00:51:26.716Z,0
2017-09-09T00:52:26.741Z,0
2017-09-09T00:53:26.746Z,0
2017-09-09T00:54:26.148Z,0
2017-09-09T00:55:26.854Z,0
2017-09-09T00:56:26.831Z,0
2017-09-09T00:57:26.602Z,0
2017-09-09T00:58:26.905Z,0
2017-09-09T00:59:26.653Z,0
2017-09-09T01:00:26.365Z,0
2017-09-09T01:01:26.690Z,0
2017-09-09T01:02:26.407Z,0
2017-09-09T01:03:26.822Z,0
2017-09-09T01:04:27.561Z,0
2017-09-09T01:05:27.566Z,0
2017-09-09T01:06:27.226Z,0
2017-09-09T01:07:27.550Z,0
2017-09-09T01:08:27.566Z,0
2017-09-09T01:09:27.641Z,0
2017-09-09T01:10:27.663Z,0
2017-09-09T01:11:27.718Z,0
2017-09-09T01:12:28.036Z,0
2017-09-09T01:13:27.475Z,0
2017-09-09T01:14:28.042Z,0
2017-09-09T01:15:28.259Z,0
2017-09-09T01:16:28.279Z,0
2017-09-09T01:17:27.872Z,0
2017-09-09T01:18:27.903Z,0
2017-09-09T01:19:28.267Z,0
2017-09-09T01:20:28.354Z,0
2017-09-09T01:21:28.368Z,0
2017-09-09T01:22:28.388Z,0
2017-09-09T01:23:28.110Z,0
2017-09-09T01:24:28.207Z,0
2017-09-09T01:25:28.818Z,0
2017-09-09T01:26:28.862Z,0
2017-09-09T01:27:27.943Z,0
2017-09-09T01:28:28.621Z,0
2017-09-09T01:29:29.019Z,0
2017-09-09T01:30:28.469Z,0
2017-09-09T01:31:28.795Z,0
2017-09-09T01:32:29.125Z,0
2017-09-09T01:33:28.857Z,0
2017-09-09T01:34:28.560Z,0
2017-09-09T01:35:28.949Z,0
2017-09-09T01:36:28.981Z,0
2017-09-09T01:37:28.989Z,0
2017-09-09T01:38:29.655Z,0
2017-09-09T01:39:29.091Z,0
2017-09-09T01:40:29.465Z,0
2017-09-09T01:41:29.886Z,0
2017-09-09T01:42:30.221Z,0
2017-09-09T01:43:30.233Z,0
2017-09-09T01:44:29.925Z,0
2017-09-09T01:45:30.027Z,0
2017-09-09T01:46:30.116Z,0
2017-09-09T01:47:30.452Z,0
2017-09-09T01:48:31.097Z,0
2017-09-09T01:49:30.841Z,0
2017-09-09T01:50:31.249Z,0
2017-09-09T01:51:30.885Z,0
2017-09-09T01:52:31.302Z,0
2017-09-09T01:53:31.621Z,0
2017-09-09T01:54:31.037Z,0
2017-09-09T01:55:31.751Z,0
2017-09-09T01:56:31.464Z,0
2017-09-09T01:57:32.152Z,0
2017-09-09T01:58:31.855Z,0
2017-09-09T01:59:32.537Z,0
2017-09-09T02:00:33.160Z,0
2017-09-09T02:01:33.285Z,0
2017-09-09T02:02:33.348Z,0
2017-09-09T02:03:33.035Z,0
2017-09-09T02:04:33.022Z,0
2017-09-09T02:05:33.359Z,0
2017-09-09T02:06:33.052Z,0
2017-09-09T02:07:33.743Z,0
2017-09-09T02:08:33.430Z,0
2017-09-09T02:09:33.763Z,0
2017-09-09T02:10:33.768Z,0
2017-09-09T02:11:33.500Z,0
2017-09-09T02:12:33.888Z,0
2017-09-09T02:13:33.917Z,0
2017-09-09T02:14:34.282Z,0
2017-09-09T02:15:34.001Z,0
2017-09-09T02:16:34.005Z,0
2017-09-09T02:17:34.689Z,0
2017-09-09T02:18:34.373Z,0
2017-09-09T02:19:35.038Z,0
2017-09-09T02:20:34.776Z,0
2017-09-09T02:21:35.140Z,0
2017-09-09T02:22:35.255Z,0
2017-09-09T02:23:35.583Z,0
2017-09-09T02:24:35.648Z,0
2017-09-09T02:25:35.660Z,0
2017-09-09T02:26:35.059Z,0
2017-09-09T02:27:35.512Z,0
2017-09-09T02:28:35.855Z,0
2017-09-09T02:29:36.257Z,0
2017-09-09T02:30:35.931Z,0
2017-09-09T02:31:36.278Z,0
2017-09-09T02:32:35.985Z,0
2017-09-09T02:33:36.352Z,0
2017-09-09T02:34:36.366Z,0
2017-09-09T02:35:36.516Z,0
2017-09-09T02:36:36.220Z,0
2017-09-09T02:37:36.291Z,0
2017-09-09T02:38:36.525Z,0
2017-09-09T02:39:37.289Z,0
2017-09-09T02:40:36.534Z,0
2017-09-09T02:41:36.617Z,0
2017-09-09T02:42:36.366Z,0
2017-09-09T02:43:36.756Z,0
2017-09-09T02:44:36.773Z,0
2017-09-09T02:45:36.487Z,0
2017-09-09T02:46:36.878Z,0
2017-09-09T02:47:36.894Z,0
2017-09-09T02:48:36.952Z,0
2017-09-09T02:49:36.984Z,0
2017-09-09T02:50:37.022Z,0
2017-09-09T02:51:36.994Z,0
2017-09-09T02:52:36.784Z,0
2017-09-09T02:53:37.455Z,0
2017-09-09T02:54:37.489Z,0
2017-09-09T02:55:37.213Z,0
2017-09-09T02:56:37.874Z,0
2017-09-09T02:57:37.932Z,0
2017-09-09T02:58:37.964Z,0
2017-09-09T02:59:37.322Z,0
2017-09-09T03:00:37.988Z,0
2017-09-09T03:01:38.349Z,0
2017-09-09T03:02:37.773Z,0
2017-09-09T03:03:38.131Z,0
2017-09-09T03:04:38.822Z,0
2017-09-09T03:05:38.553Z,0
2017-09-09T03:06:38.560Z,0
2017-09-09T03:07:38.906Z,0
2017-09-09T03:08:39.355Z,0
2017-09-09T03:09:38.687Z,0
2017-09-09T03:10:39.024Z,0
2017-09-09T03:11:39.651Z,0
2017-09-09T03:12:40.014Z,0
2017-09-09T03:13:40.024Z,0
2017-09-09T03:14:40.068Z,0
2017-09-09T03:15:40.750Z,0
2017-09-09T03:16:40.477Z,0
2017-09-09T03:17:40.512Z,0
2017-09-09T03:18:40.877Z,0
2017-09-09T03:19:40.292Z,0
2017-09-09T03:20:41.008Z,0
2017-09-09T03:21:40.727Z,0
2017-09-09T03:22:40.773Z,0
2017-09-09T03:23:41.111Z,0
2017-09-09T03:24:40.801Z,0
2017-09-09T03:25:40.823Z,0
2017-09-09T03:26:40.868Z,0
2017-09-09T03:27:40.911Z,0
2017-09-09T03:28:40.962Z,0
2017-09-09T03:29:41.289Z,0
2017-09-09T03:30:41.042Z,0
2017-09-09T03:31:41.435Z,0
2017-09-09T03:32:41.435Z,0
2017-09-09T03:33:41.497Z,0
2017-09-09T03:34:41.168Z,0
2017-09-09T03:35:41.268Z,0
2017-09-09T03:36:40.983Z,0
2017-09-09T03:37:41.663Z,0
2017-09-09T03:38:42.024Z,0
2017-09-09T03:39:42.002Z,0
2017-09-09T03:40:42.136Z,0
2017-09-09T03:41:41.803Z,0
2017-09-09T03:42:41.484Z,0
2017-09-09T03:43:42.550Z,0
2017-09-09T03:44:42.534Z,0
2017-09-09T03:45:42.498Z,0
2017-09-09T03:46:42.530Z,0
2017-09-09T03:47:41.989Z,0
2017-09-09T03:48:42.438Z,0
2017-09-09T03:49:42.763Z,0
2017-09-09T03:50:42.750Z,0
2017-09-09T03:51:42.789Z,0
2017-09-09T03:52:42.532Z,0
2017-09-09T03:53:42.891Z,0
2017-09-09T03:54:43.558Z,0
2017-09-09T03:55:43.294Z,0
2017-09-09T03:56:43.615Z,0
2017-09-09T03:57:43.068Z,0
2017-09-09T03:58:43.430Z,0
2017-09-09T03:59:43.483Z,0
2017-09-09T04:00:43.460Z,0
2017-09-09T04:01:43.481Z,0
2017-09-09T04:02:43.590Z,0
2017-09-09T04:03:44.321Z,0
2017-09-09T04:04:44.339Z,0
2017-09-09T04:05:44.126Z,0
2017-09-09T04:06:44.440Z,0
2017-09-09T04:07:43.894Z,4
2017-09-09T04:08:44.287Z,4
2017-09-09T04:09:44.575Z,4
2017-09-09T04:10:44.632Z,4
2017-09-09T04:11:44.734Z,4
2017-09-09T04:12:44.378Z,8
2017-09-09T04:13:44.171Z,4
2017-09-09T04:14:44.808Z,8
2017-09-09T04:15:44.819Z,4
2017-09-09T04:16:44.839Z,8
2017-09-09T04:17:44.876Z,8
2017-09-09T04:18:44.884Z,12
2017-09-09T04:19:44.977Z,8
2017-09-09T04:20:44.614Z,16
2017-09-09T04:21:44.693Z,16
2017-09-09T04:22:45.083Z,16
2017-09-09T04:23:45.496Z,20
2017-09-09T04:24:45.530Z,24
2017-09-09T04:25:45.550Z,28
2017-09-09T04:26:44.903Z,32
2017-09-09T04:27:45.587Z,36
2017-09-09T04:28:45.296Z,40
2017-09-09T04:29:45.297Z,44
2017-09-09T04:30:46.004Z,52
2017-09-09T04:31:46.261Z,64
2017-09-09T04:32:46.046Z,72
2017-09-09T04:33:46.120Z,76
2017-09-09T04:34:46.221Z,80
2017-09-09T04:35:47.221Z,80
2017-09-09T04:36:47.244Z,88
2017-09-09T04:37:46.958Z,92
2017-09-09T04:38:47.679Z,104
2017-09-09T04:39:47.689Z,112
2017-09-09T04:40:47.476Z,120
2017-09-09T04:41:47.481Z,128
2017-09-09T04:42:47.563Z,136
2017-09-09T04:43:48.290Z,144
2017-09-09T04:44:48.330Z,152
2017-09-09T04:45:48.038Z,160
2017-09-09T04:46:48.095Z,176
2017-09-09T04:47:48.505Z,184
2017-09-09T04:48:48.159Z,196
2017-09-09T04:49:48.885Z,204
2017-09-09T04:50:49.269Z,212
2017-09-09T04:51:49.512Z,224
2017-09-09T04:52:49.310Z,236
2017-09-09T04:53:49.408Z,256
2017-09-09T04:54:49.338Z,284
2017-09-09T04:55:49.175Z,312
2017-09-09T04:56:49.551Z,360
2017-09-09T04:57:49.171Z,416
2017-09-09T04:58:49.574Z,480
2017-09-09T04:59:49.851Z,548
2017-09-09T05:00:49.559Z,600
2017-09-09T05:01:49.884Z,628
2017-09-09T05:02:49.362Z,632
2017-09-09T05:03:49.786Z,612
2017-09-09T05:04:50.165Z,580
2017-09-09T05:05:50.529Z,552
2017-09-09T05:06:50.513Z,532
2017-09-09T05:07:50.218Z,508
2017-09-09T05:08:50.932Z,488
2017-09-09T05:09:51.213Z,476
2017-09-09T05:10:50.662Z,464
2017-09-09T05:11:50.071Z,460
2017-09-09T05:12:50.450Z,456
2017-09-09T05:13:50.993Z,456
2017-09-09T05:14:51.145Z,448
2017-09-09T05:15:51.156Z,464
2017-09-09T05:16:51.110Z,472
2017-09-09T05:17:50.951Z,464
2017-09-09T05:18:51.652Z,468
2017-09-09T05:19:51.114Z,460
2017-09-09T05:20:51.859Z,476
2017-09-09T05:21:51.911Z,484
2017-09-09T05:22:51.670Z,476
2017-09-09T05:23:51.317Z,468
2017-09-09T05:24:52.366Z,476
2017-09-09T05:25:52.464Z,492
2017-09-09T05:26:52.522Z,476
2017-09-09T05:27:52.600Z,468
2017-09-09T05:28:52.309Z,436
2017-09-09T05:29:52.364Z,444
2017-09-09T05:30:53.361Z,472
2017-09-09T05:31:53.369Z,508
2017-09-09T05:32:53.135Z,568
2017-09-09T05:33:53.462Z,596
2017-09-09T05:34:53.498Z,636
2017-09-09T05:35:53.190Z,636
2017-09-09T05:36:53.262Z,616
2017-09-09T05:37:53.625Z,632
2017-09-09T05:38:53.896Z,692
2017-09-09T05:39:53.711Z,768
2017-09-09T05:40:53.691Z,856
2017-09-09T05:41:53.107Z,956
2017-09-09T05:42:53.786Z,1048
2017-09-09T05:43:53.874Z,1100
2017-09-09T05:44:54.274Z,1132
2017-09-09T05:45:53.720Z,1168
2017-09-09T05:46:54.698Z,1224
2017-09-09T05:47:54.778Z,1324
2017-09-09T05:48:55.203Z,1480
2017-09-09T05:49:54.873Z,1600
2017-09-09T05:50:55.307Z,1772
2017-09-09T05:51:54.694Z,1848
2017-09-09T05:52:55.160Z,1884
2017-09-09T05:53:55.810Z,1876
2017-09-09T05:54:55.245Z,1916
2017-09-09T05:55:55.681Z,1888
2017-09-09T05:56:55.660Z,1868
2017-09-09T05:57:55.710Z,1812
2017-09-09T05:58:56.409Z,1724
2017-09-09T05:59:56.479Z,1664
2017-09-09T06:00:57.166Z,1640
2017-09-09T06:01:57.237Z,1640
2017-09-09T06:02:57.217Z,1648
2017-09-09T06:03:57.362Z,1688
2017-09-09T06:04:57.008Z,1736
2017-09-09T06:05:56.731Z,1820
2017-09-09T06:06:57.102Z,1952
2017-09-09T06:07:57.171Z,2120
2017-09-09T06:08:57.202Z,2328
2017-09-09T06:09:57.605Z,2556
2017-09-09T06:10:58.044Z,2800
2017-09-09T06:11:58.834Z,2980
2017-09-09T06:12:59.236Z,3156
2017-09-09T06:13:59.302Z,3252
2017-09-09T06:14:59.360Z,3292
2017-09-09T06:15:59.321Z,3228
2017-09-09T06:16:59.050Z,3120
2017-09-09T06:17:58.811Z,2956
2017-09-09T06:18:59.819Z,2760
2017-09-09T06:19:59.868Z,2572
2017-09-09T06:20:59.600Z,2408
2017-09-09T06:21:59.942Z,2276
2017-09-09T06:22:59.619Z,2204
2017-09-09T06:24:00.077Z,2140
2017-09-09T06:25:00.548Z,2060
2017-09-09T06:26:00.240Z,1936
2017-09-09T06:27:01.295Z,1780
2017-09-09T06:28:01.332Z,1720
2017-09-09T06:29:01.383Z,1704
2017-09-09T06:30:01.084Z,1724
2017-09-09T06:31:00.770Z,1784
2017-09-09T06:32:00.891Z,1856
2017-09-09T06:33:01.322Z,1904
2017-09-09T06:34:01.689Z,1932
2017-09-09T06:35:01.720Z,1964
2017-09-09T06:36:01.392Z,2000
2017-09-09T06:37:01.094Z,2060
2017-09-09T06:38:01.819Z,2124
2017-09-09T06:39:01.857Z,2176
2017-09-09T06:40:01.926Z,2200
2017-09-09T06:41:02.068Z,2204
2017-09-09T06:42:01.817Z,2260
2017-09-09T06:43:02.489Z,2360
2017-09-09T06:44:02.216Z,2476
2017-09-09T06:45:02.526Z,2568
2017-09-09T06:46:02.565Z,2624
2017-09-09T06:47:02.635Z,2624
2017-09-09T06:48:02.332Z,2584
2017-09-09T06:49:02.019Z,2568
2017-09-09T06:50:02.736Z,2572
2017-09-09T06:51:02.759Z,2600
2017-09-09T06:52:02.511Z,2640
2017-09-09T06:53:02.535Z,2664
2017-09-09T06:54:02.651Z,2664
2017-09-09T06:55:03.021Z,2624
2017-09-09T06:56:03.456Z,2560
2017-09-09T06:57:02.818Z,2484
2017-09-09T06:58:03.383Z,2408
2017-09-09T06:59:03.468Z,2344
2017-09-09T07:00:03.180Z,2264
2017-09-09T07:01:03.258Z,2200
2017-09-09T07:02:03.249Z,2148
2017-09-09T07:03:03.430Z,2100
2017-09-09T07:04:03.010Z,2052
2017-09-09T07:05:03.123Z,2020
2017-09-09T07:06:03.885Z,1972
2017-09-09T07:07:03.576Z,1964
2017-09-09T07:08:03.986Z,1928
2017-09-09T07:09:03.621Z,1864
2017-09-09T07:10:04.322Z,1892
2017-09-09T07:11:03.776Z,1880
2017-09-09T07:12:04.190Z,1840
2017-09-09T07:13:04.936Z,1772
2017-09-09T07:14:04.647Z,1740
2017-09-09T07:15:05.310Z,1756
2017-09-09T07:16:04.649Z,1892
2017-09-09T07:17:05.055Z,1908
2017-09-09T07:18:05.694Z,1784
2017-09-09T07:19:05.767Z,1744
2017-09-09T07:20:05.840Z,1680
2017-09-09T07:21:05.591Z,1612
2017-09-09T07:22:05.247Z,1476
2017-09-09T07:23:05.646Z,1492
2017-09-09T07:24:06.025Z,1520
2017-09-09T07:25:06.480Z,1572
2017-09-09T07:26:06.342Z,1704
2017-09-09T07:27:05.782Z,1724
2017-09-09T07:28:06.188Z,1920
2017-09-09T07:29:06.928Z,2056
2017-09-09T07:30:07.269Z,2192
2017-09-09T07:31:06.976Z,2336
2017-09-09T07:32:06.514Z,2424
2017-09-09T07:33:06.546Z,2496
2017-09-09T07:34:06.947Z,2516
2017-09-09T07:35:07.673Z,2512
2017-09-09T07:36:07.690Z,2568
2017-09-09T07:37:07.433Z,2592
2017-09-09T07:38:07.844Z,2656
2017-09-09T07:39:07.840Z,2640
2017-09-09T07:40:07.297Z,2760
2017-09-09T07:41:08.005Z,2888
2017-09-09T07:42:08.693Z,3016
2017-09-09T07:43:08.800Z,3140
2017-09-09T07:44:08.442Z,3168
2017-09-09T07:45:08.922Z,3064
2017-09-09T07:46:08.550Z,2896
2017-09-09T07:47:08.698Z,2728
2017-09-09T07:48:09.111Z,2632
2017-09-09T07:49:09.236Z,2664
2017-09-09T07:50:09.945Z,2784
2017-09-09T07:51:09.562Z,2952
2017-09-09T07:52:09.659Z,3076
2017-09-09T07:53:09.378Z,3124
2017-09-09T07:54:10.034Z,3016
2017-09-09T07:55:10.148Z,2816
2017-09-09T07:56:10.138Z,2592
2017-09-09T07:57:09.945Z,2504
2017-09-09T07:58:10.622Z,2416
2017-09-09T07:59:10.649Z,2304
2017-09-09T08:00:10.813Z,2148
2017-09-09T08:01:11.542Z,1972
2017-09-09T08:02:11.280Z,1940
2017-09-09T08:03:12.052Z,1940
2017-09-09T08:04:11.694Z,1984
2017-09-09T08:05:11.593Z,2008
2017-09-09T08:06:11.457Z,2020
2017-09-09T08:07:11.874Z,2008
2017-09-09T08:08:11.912Z,2004
2017-09-09T08:09:11.610Z,2040
2017-09-09T08:10:12.064Z,2044
2017-09-09T08:11:12.005Z,2072
2017-09-09T08:12:12.170Z,2132
2017-09-09T08:13:12.287Z,2232
2017-09-09T08:14:12.642Z,2396
2017-09-09T08:15:12.570Z,2508
2017-09-09T08:16:13.272Z,2488
2017-09-09T08:17:12.747Z,2420
2017-09-09T08:18:13.471Z,2380
2017-09-09T08:19:13.523Z,2392
2017-09-09T08:20:13.944Z,2380
2017-09-09T08:21:13.295Z,2452
2017-09-09T08:22:13.306Z,2352
2017-09-09T08:23:13.392Z,2464
2017-09-09T08:24:12.897Z,2404
2017-09-09T08:25:14.262Z,2212
2017-09-09T08:26:13.830Z,2152
2017-09-09T08:27:14.493Z,2260
2017-09-09T08:28:14.278Z,2384
2017-09-09T08:29:15.237Z,2520
2017-09-09T08:30:15.130Z,2460
2017-09-09T08:31:14.793Z,2332
2017-09-09T08:32:15.178Z,2220
2017-09-09T08:33:14.975Z,2176
2017-09-09T08:34:15.391Z,2160
2017-09-09T08:35:16.063Z,2140
2017-09-09T08:36:16.085Z,2168
2017-09-09T08:37:16.146Z,2156
2017-09-09T08:38:16.172Z,2132
2017-09-09T08:39:15.898Z,2124
2017-09-09T08:40:16.042Z,2144
2017-09-09T08:41:16.064Z,2228
2017-09-09T08:42:16.126Z,2288
2017-09-09T08:43:16.531Z,2408
2017-09-09T08:44:16.880Z,2472
2017-09-09T08:45:15.926Z,2420
2017-09-09T08:46:16.310Z,2328
2017-09-09T08:47:16.630Z,2332
2017-09-09T08:48:17.032Z,2348
2017-09-09T08:49:16.736Z,2308
2017-09-09T08:50:16.800Z,2280
2017-09-09T08:51:16.907Z,2288
2017-09-09T08:52:17.614Z,2420
2017-09-09T08:53:17.363Z,2468
2017-09-09T08:54:17.401Z,2492
2017-09-09T08:55:16.802Z,2424
2017-09-09T08:56:17.517Z,2348
2017-09-09T08:57:17.545Z,2380
2017-09-09T08:58:17.891Z,2580
2017-09-09T08:59:17.621Z,2716
2017-09-09T09:00:19.267Z,2700
2017-09-09T09:01:19.457Z,2560
2017-09-09T09:02:19.857Z,2384
2017-09-09T09:03:19.227Z,2332
2017-09-09T09:04:19.904Z,2324
2017-09-09T09:05:19.987Z,2332
2017-09-09T09:06:20.353Z,2480
2017-09-09T09:07:19.722Z,2676
2017-09-09T09:08:20.072Z,2852
2017-09-09T09:09:20.121Z,2928
2017-09-09T09:10:19.840Z,2860
2017-09-09T09:11:20.223Z,2800
2017-09-09T09:12:20.666Z,2768
2017-09-09T09:13:20.768Z,2804
2017-09-09T09:14:21.072Z,2864
2017-09-09T09:15:20.741Z,2968
2017-09-09T09:16:21.106Z,2952
2017-09-09T09:17:21.413Z,2948
2017-09-09T09:18:22.157Z,2860
2017-09-09T09:19:22.171Z,2816
2017-09-09T09:20:21.596Z,2712
2017-09-09T09:21:22.073Z,2644
2017-09-09T09:22:22.165Z,2548
2017-09-09T09:23:22.599Z,2520
2017-09-09T09:24:22.893Z,2408
2017-09-09T09:25:22.335Z,2456
2017-09-09T09:26:23.119Z,2476
2017-09-09T09:27:23.645Z,2556
2017-09-09T09:28:24.037Z,2740
2017-09-09T09:29:24.063Z,3068
2017-09-09T09:30:24.214Z,3284
2017-09-09T09:31:26.212Z,3564
2017-09-09T09:32:24.810Z,3688
2017-09-09T09:33:25.530Z,3704
2017-09-09T09:34:25.205Z,3800
2017-09-09T09:35:25.712Z,3812
2017-09-09T09:36:25.059Z,3792
2017-09-09T09:37:25.747Z,3752
2017-09-09T09:38:25.774Z,3660
2017-09-09T09:39:26.152Z,3488
2017-09-09T09:40:27.006Z,3312
2017-09-09T09:41:26.378Z,3148
2017-09-09T09:42:27.006Z,3076
2017-09-09T09:43:27.370Z,3072
2017-09-09T09:44:27.366Z,2988
2017-09-09T09:45:27.197Z,2708
2017-09-09T09:46:27.252Z,2476
2017-09-09T09:47:28.212Z,2388
2017-09-09T09:48:27.986Z,2384
2017-09-09T09:49:28.374Z,2400
2017-09-09T09:50:28.517Z,2420
2017-09-09T09:51:29.235Z,2448
2017-09-09T09:52:28.613Z,2536
2017-09-09T09:53:28.610Z,2676
2017-09-09T09:54:28.712Z,2840
2017-09-09T09:55:29.316Z,3020
2017-09-09T09:56:29.647Z,3152
2017-09-09T09:57:29.988Z,3188
2017-09-09T09:58:29.461Z,3220
2017-09-09T09:59:29.528Z,3248
2017-09-09T10:00:30.155Z,3272
2017-09-09T10:01:30.522Z,3236
2017-09-09T10:02:30.234Z,3228
2017-09-09T10:03:30.319Z,3252
2017-09-09T10:04:30.362Z,3248
2017-09-09T10:05:31.118Z,3104
2017-09-09T10:06:30.760Z,2928
2017-09-09T10:07:30.847Z,2808
2017-09-09T10:08:30.569Z,2856
2017-09-09T10:09:30.956Z,2996
2017-09-09T10:10:31.763Z,3100
2017-09-09T10:11:31.452Z,3152
2017-09-09T10:12:31.489Z,3164
2017-09-09T10:13:31.863Z,3112
2017-09-09T10:14:31.923Z,2996
2017-09-09T10:15:31.952Z,3060
2017-09-09T10:16:31.700Z,3164
2017-09-09T10:17:32.357Z,3212
2017-09-09T10:18:32.356Z,3284
2017-09-09T10:19:32.392Z,3292
2017-09-09T10:20:32.487Z,3192
2017-09-09T10:21:32.197Z,3040
2017-09-09T10:22:32.267Z,3048
2017-09-09T10:23:32.311Z,3064
2017-09-09T10:24:32.341Z,3108
2017-09-09T10:25:32.664Z,3152
2017-09-09T10:26:32.700Z,3068
2017-09-09T10:27:31.803Z,3048
2017-09-09T10:28:32.149Z,3348
2017-09-09T10:29:32.852Z,3720
2017-09-09T10:30:32.556Z,3884
2017-09-09T10:31:32.922Z,3688
2017-09-09T10:32:32.954Z,3376
2017-09-09T10:33:32.962Z,3320
2017-09-09T10:34:33.029Z,3276
2017-09-09T10:35:32.722Z,3192
2017-09-09T10:36:33.112Z,3100
2017-09-09T10:37:32.814Z,3072
2017-09-09T10:38:33.815Z,3072
2017-09-09T10:39:33.204Z,3140
2017-09-09T10:40:33.299Z,3260
2017-09-09T10:41:34.040Z,3288
2017-09-09T10:42:33.709Z,3268
2017-09-09T10:43:34.429Z,3288
2017-09-09T10:44:34.482Z,3304
2017-09-09T10:45:34.479Z,3356
2017-09-09T10:46:34.210Z,3476
2017-09-09T10:47:34.271Z,3928
2017-09-09T10:48:34.933Z,4312
2017-09-09T10:49:34.698Z,4380
2017-09-09T10:50:34.714Z,4096
2017-09-09T10:51:35.098Z,3660
2017-09-09T10:52:34.808Z,3524
2017-09-09T10:53:35.122Z,3612
2017-09-09T10:54:35.184Z,3672
2017-09-09T10:55:35.529Z,3828
2017-09-09T10:56:35.256Z,4056
2017-09-09T10:57:35.611Z,4308
2017-09-09T10:58:35.618Z,4488
2017-09-09T10:59:35.062Z,4588
2017-09-09T11:00:35.753Z,4660
2017-09-09T11:01:35.450Z,4460
2017-09-09T11:02:35.864Z,4252
2017-09-09T11:03:35.874Z,3852
2017-09-09T11:04:35.912Z,3524
2017-09-09T11:05:35.966Z,3364
2017-09-09T11:06:36.377Z,3348
2017-09-09T11:07:37.095Z,3356
2017-09-09T11:08:36.493Z,3392
2017-09-09T11:09:37.157Z,3480
2017-09-09T11:10:37.809Z,3528
2017-09-09T11:11:37.566Z,3532
2017-09-09T11:12:38.260Z,3648
2017-09-09T11:13:37.953Z,3640
2017-09-09T11:14:37.989Z,3476
2017-09-09T11:15:38.062Z,3312
2017-09-09T11:16:38.417Z,3536
2017-09-09T11:17:38.421Z,3912
2017-09-09T11:18:38.180Z,4424
2017-09-09T11:19:39.191Z,4392
2017-09-09T11:20:39.258Z,3940
2017-09-09T11:21:38.633Z,3644
2017-09-09T11:22:39.363Z,3848
2017-09-09T11:23:39.375Z,4588
2017-09-09T11:24:39.077Z,5428
2017-09-09T11:25:39.111Z,6084
2017-09-09T11:26:39.147Z,6060
2017-09-09T11:27:39.509Z,5940
2017-09-09T11:28:39.205Z,5464
2017-09-09T11:29:39.601Z,5160
2017-09-09T11:30:39.637Z,5096
2017-09-09T11:31:39.649Z,4960
2017-09-09T11:32:40.013Z,4760
2017-09-09T11:33:39.407Z,4228
2017-09-09T11:34:39.457Z,3648
2017-09-09T11:35:40.187Z,3216
2017-09-09T11:36:39.565Z,2816
2017-09-09T11:37:40.209Z,2592
2017-09-09T11:38:39.940Z,2568
2017-09-09T11:39:39.966Z,2808
2017-09-09T11:40:39.671Z,3412
2017-09-09T11:41:40.364Z,4212
2017-09-09T11:42:39.755Z,4752
2017-09-09T11:43:40.452Z,4724
2017-09-09T11:44:40.155Z,4532
2017-09-09T11:45:40.792Z,3948
2017-09-09T11:46:40.539Z,3464
2017-09-09T11:47:41.185Z,2976
2017-09-09T11:48:40.289Z,2660
2017-09-09T11:49:40.923Z,2460
2017-09-09T11:50:40.969Z,2940
2017-09-09T11:51:41.592Z,3592
2017-09-09T11:52:41.333Z,3828
2017-09-09T11:53:41.416Z,3888
2017-09-09T11:54:41.206Z,3464
2017-09-09T11:55:41.522Z,3344
2017-09-09T11:56:42.185Z,3108
2017-09-09T11:57:41.970Z,2892
2017-09-09T11:58:42.787Z,2768
2017-09-09T11:59:42.424Z,2640
2017-09-09T12:00:43.144Z,3020
2017-09-09T12:01:43.129Z,3320
2017-09-09T12:02:42.932Z,3284
2017-09-09T12:03:43.204Z,2900
2017-09-09T12:04:42.624Z,2648
2017-09-09T12:05:43.004Z,2576
2017-09-09T12:06:42.705Z,2496
2017-09-09T12:07:43.062Z,2620
2017-09-09T12:08:43.111Z,2808
2017-09-09T12:09:43.477Z,2712
2017-09-09T12:10:43.492Z,2644
2017-09-09T12:11:43.300Z,2708
2017-09-09T12:12:43.240Z,2768
2017-09-09T12:13:43.629Z,2632
2017-09-09T12:14:43.371Z,2492
2017-09-09T12:15:44.022Z,2296
2017-09-09T12:16:43.718Z,2236
2017-09-09T12:17:43.781Z,2352
2017-09-09T12:18:43.864Z,2260
2017-09-09T12:19:44.392Z,2104
2017-09-09T12:20:44.783Z,2052
2017-09-09T12:21:44.549Z,2292
2017-09-09T12:22:44.258Z,2480
2017-09-09T12:23:44.248Z,2620
2017-09-09T12:24:44.884Z,2672
2017-09-09T12:25:44.890Z,2740
2017-09-09T12:26:44.918Z,2752
2017-09-09T12:27:44.633Z,2756
2017-09-09T12:28:44.663Z,2552
2017-09-09T12:29:45.023Z,2280
2017-09-09T12:30:45.085Z,2152
2017-09-09T12:31:44.819Z,2184
2017-09-09T12:32:45.444Z,2252
2017-09-09T12:33:45.481Z,2404
2017-09-09T12:34:45.553Z,2592
2017-09-09T12:35:45.550Z,2776
2017-09-09T12:36:45.323Z,2816
2017-09-09T12:37:45.336Z,2672
2017-09-09T12:38:45.688Z,2468
2017-09-09T12:39:45.681Z,2304
2017-09-09T12:40:45.457Z,2184
2017-09-09T12:41:45.823Z,2100
2017-09-09T12:42:45.876Z,1988
2017-09-09T12:43:46.525Z,1936
2017-09-09T12:44:46.252Z,1940
2017-09-09T12:45:46.586Z,1980
2017-09-09T12:46:46.982Z,2004
2017-09-09T12:47:46.648Z,2100
2017-09-09T12:48:46.437Z,2296
2017-09-09T12:49:46.831Z,2604
2017-09-09T12:50:46.818Z,2880
2017-09-09T12:51:46.882Z,3112
2017-09-09T12:52:46.884Z,3168
2017-09-09T12:53:46.326Z,3068
2017-09-09T12:54:47.295Z,2960
2017-09-09T12:55:47.016Z,2888
2017-09-09T12:56:46.727Z,2868
2017-09-09T12:57:47.691Z,2648
2017-09-09T12:58:47.088Z,2388
2017-09-09T12:59:47.761Z,2116
2017-09-09T13:00:47.795Z,1964
2017-09-09T13:01:47.526Z,1944
2017-09-09T13:02:47.271Z,1968
2017-09-09T13:03:47.962Z,1968
2017-09-09T13:04:47.672Z,1968
2017-09-09T13:05:48.331Z,2016
2017-09-09T13:06:48.668Z,2076
2017-09-09T13:07:48.095Z,2088
2017-09-09T13:08:48.741Z,2072
2017-09-09T13:09:48.514Z,2104
2017-09-09T13:10:48.834Z,2168
2017-09-09T13:11:48.867Z,2200
2017-09-09T13:12:49.202Z,2204
2017-09-09T13:13:49.502Z,2360
2017-09-09T13:14:49.270Z,2652
2017-09-09T13:15:49.298Z,2992
2017-09-09T13:16:49.684Z,3224
2017-09-09T13:17:49.706Z,3304
2017-09-09T13:18:50.013Z,3292
2017-09-09T13:19:50.077Z,3216
2017-09-09T13:20:50.125Z,3168
2017-09-09T13:21:50.166Z,3160
2017-09-09T13:22:50.553Z,3188
2017-09-09T13:23:50.608Z,3200
2017-09-09T13:24:51.570Z,3280
2017-09-09T13:25:50.963Z,3404
2017-09-09T13:26:51.695Z,3476
2017-09-09T13:27:51.674Z,3540
2017-09-09T13:28:51.121Z,3416
2017-09-09T13:29:51.403Z,3356
2017-09-09T13:30:51.734Z,3236
2017-09-09T13:31:51.763Z,3084
2017-09-09T13:32:52.467Z,3012
2017-09-09T13:33:51.561Z,2908
2017-09-09T13:34:52.182Z,2896
2017-09-09T13:35:52.568Z,2964
2017-09-09T13:36:52.584Z,3024
2017-09-09T13:37:52.610Z,3108
2017-09-09T13:38:52.371Z,3096
2017-09-09T13:39:52.766Z,3008
2017-09-09T13:40:52.820Z,3008
2017-09-09T13:41:52.872Z,2956
2017-09-09T13:42:53.208Z,3020
2017-09-09T13:43:52.944Z,3032
2017-09-09T13:44:53.008Z,3108
2017-09-09T13:45:53.349Z,3228
2017-09-09T13:46:53.397Z,3444
2017-09-09T13:47:53.426Z,3528
2017-09-09T13:48:54.143Z,3560
2017-09-09T13:49:53.896Z,3680